Accueil
METAR-TAF:

METAR-TAF

Aéroports :

Napakiak, Alaska, États-Unis

latitude: 60-41-25N, longitude: 161-58-43W, altitude: 5 m

Observation

Le bulletin a été fait il y a 10 minutes, à 04:56 UTC
Vent 11 kt de sud
Température 1°C
Humidité 86%
Pression 982 hPa
Quelques nuages à une hauteur de 3600 ft
Nuages épars à une hauteur de 5500 ft

METAR: PANA 080456Z AUTO 17011KT FEW036 SCT055 01/M01 A2901 RMK AO2 SLP824 T00111006 PWINO FZRANO $

Heure: 20:06 (05:06 UTC)


TAF: absent

Observations et prévisions météorologiques de plus de 4000 aéroports (messages METAR et TAF).

Les stations disponibles sont représentées par des disques jaunes et rouges sur la carte.

Passer la souris dessus pour voir le nom de la station.

Cliquer dessus pour voir les observations et prévisions météorologiques.

Pour changer de carte: cliquez sur les boutons verts avec une croix noire pour zoomer, sur le bouton vert avec un tiret pour effectuer un zoom arrière, ou sur les flèches vertes pour les cartes adjacentes.


METAR-TAF: